Time;durP1;ratioP1;P1;durP2;ratioP2;P2;SDS_P1;SDS_P2;PMS_P1;PMS_P2;Temp;Humidity;BMP_temperature;BMP_pressure;BME280_temperature;BME280_humidity;BME280_pressure;Samples;Min_cycle;Max_cycle;Signal;HPM_P1;HPM_P2
2021/05/09 04:02:11;;;;;;;16.13;15.23;;;14.70;57.10;;;;;;5533485;22;94542;-84
2021/05/09 04:04:37;;;;;;;13.25;12.75;;;14.70;57.10;;;;;;4957709;28;91933;-84
2021/05/09 04:07:03;;;;;;;14.55;13.95;;;14.70;57.10;;;;;;4945879;28;91910;-84
2021/05/09 04:09:28;;;;;;;14.20;13.70;;;14.70;57.10;;;;;;4963735;28;92233;-83
2021/05/09 04:11:54;;;;;;;13.93;13.43;;;14.70;57.30;;;;;;4951483;28;91961;-81
2021/05/09 04:14:20;;;;;;;14.63;14.02;;;14.70;58.00;;;;;;4964152;28;91884;-82
2021/05/09 04:16:46;;;;;;;16.90;16.30;;;14.60;58.00;;;;;;4964118;28;91414;-84
2021/05/09 04:19:11;;;;;;;16.73;16.02;;;14.70;57.60;;;;;;4952891;28;92005;-85
2021/05/09 04:21:37;;;;;;;18.15;17.45;;;14.70;57.30;;;;;;4960305;28;92035;-83
2021/05/09 04:24:03;;;;;;;14.00;13.50;;;14.80;57.10;;;;;;4959033;28;93594;-84
2021/05/09 04:26:29;;;;;;;18.23;17.52;;;14.80;56.60;;;;;;4949350;28;92523;-84
2021/05/09 04:28:55;;;;;;;18.08;17.27;;;14.90;57.10;;;;;;4955726;28;92095;-84
2021/05/09 04:31:20;;;;;;;17.80;17.13;;;14.80;56.70;;;;;;4960260;28;92548;-86
2021/05/09 04:33:46;;;;;;;14.15;13.55;;;14.90;56.50;;;;;;4953951;28;91842;-85
2021/05/09 04:36:12;;;;;;;13.63;13.02;;;14.90;56.00;;;;;;4956568;28;92747;-84
2021/05/09 04:38:37;;;;;;;15.73;15.13;;;15.00;56.30;;;;;;4961531;28;93039;-83
2021/05/09 04:41:03;;;;;;;17.15;16.35;;;15.00;56.10;;;;;;4955081;28;93214;-87
2021/05/09 04:43:29;;;;;;;14.60;14.10;;;15.00;55.70;;;;;;4963189;28;91917;-82
2021/05/09 04:45:56;;;;;;;15.57;15.00;;;15.10;55.60;;;;;;4963292;28;93189;-84
2021/05/09 04:48:23;;;;;;;17.42;16.75;;;15.20;55.70;;;;;;4954507;28;92949;-84
2021/05/09 04:50:49;;;;;;;21.55;20.75;;;15.20;55.60;;;;;;4960534;28;92870;-83
2021/05/09 04:53:28;;;;;;;18.48;17.77;;;15.20;55.20;;;;;;4962966;28;92029;-85
2021/05/09 04:55:55;;;;;;;18.98;18.05;;;15.30;55.10;;;;;;4964343;28;91960;-83
2021/05/09 04:58:21;;;;;;;21.05;20.17;;;15.30;55.00;;;;;;4961508;28;93144;-85
2021/05/09 05:00:51;;;;;;;17.52;16.73;;;15.40;55.00;;;;;;4954632;28;92974;-84
2021/05/09 05:03:17;;;;;;;19.80;19.10;;;15.40;55.00;;;;;;4944693;28;91918;-84
2021/05/09 05:05:42;;;;;;;16.65;15.95;;;15.40;54.90;;;;;;4945082;28;91702;-84
2021/05/09 05:08:08;;;;;;;17.50;16.80;;;15.50;54.80;;;;;;4942423;28;93665;-85
2021/05/09 05:10:34;;;;;;;21.02;20.23;;;15.40;55.10;;;;;;4944351;28;91786;-84
2021/05/09 05:12:59;;;;;;;15.52;14.93;;;15.50;54.30;;;;;;4944673;28;92996;-84
2021/05/09 05:15:25;;;;;;;16.65;16.05;;;15.50;54.60;;;;;;4944799;28;93304;-85
2021/05/09 05:17:51;;;;;;;13.82;13.27;;;15.50;54.20;;;;;;4930408;28;94326;-85
2021/05/09 05:20:17;;;;;;;12.00;11.52;;;15.60;54.80;;;;;;4944242;28;92441;-86
2021/05/09 05:22:46;;;;;;;10.88;10.13;;;15.70;53.50;;;;;;4947882;28;92191;-84
2021/05/09 05:25:12;;;;;;;9.88;9.38;;;15.80;53.30;;;;;;4943897;28;91855;-87
2021/05/09 05:27:38;;;;;;;14.23;13.63;;;15.90;53.20;;;;;;4942256;28;92463;-84
2021/05/09 05:30:04;;;;;;;15.55;14.88;;;16.00;52.90;;;;;;4952770;28;91683;-85
2021/05/09 05:32:30;;;;;;;13.35;12.82;;;16.10;52.50;;;;;;4944608;28;91971;-87
2021/05/09 05:34:55;;;;;;;14.80;14.20;;;16.10;52.60;;;;;;4944798;28;91973;-85
2021/05/09 05:37:21;;;;;;;11.82;11.23;;;16.10;53.10;;;;;;4943535;28;93522;-87
2021/05/09 05:39:49;;;;;;;9.65;9.25;;;16.10;52.90;;;;;;4938295;28;94177;-86
2021/05/09 05:42:14;;;;;;;9.13;8.45;;;16.20;52.90;;;;;;4945206;28;92020;-85
2021/05/09 05:44:40;;;;;;;9.95;9.55;;;16.20;52.50;;;;;;4948986;28;92163;-85
2021/05/09 05:47:06;;;;;;;7.97;7.57;;;16.20;52.40;;;;;;4944438;28;92280;-84
2021/05/09 05:49:31;;;;;;;7.80;7.38;;;16.30;53.00;;;;;;4943304;28;92179;-90
2021/05/09 05:51:57;;;;;;;9.48;9.07;;;16.40;52.00;;;;;;4940980;28;91992;-86
2021/05/09 05:54:25;;;;;;;7.75;7.45;;;16.40;50.90;;;;;;4944447;28;91781;-86
2021/05/09 05:56:50;;;;;;;10.13;9.73;;;16.50;51.40;;;;;;4937047;28;92273;-86
2021/05/09 05:59:16;;;;;;;14.63;14.13;;;16.60;51.00;;;;;;4943734;28;92049;-87
2021/05/09 06:01:42;;;;;;;10.82;10.43;;;16.80;49.90;;;;;;4942722;28;93058;-91
2021/05/09 06:04:07;;;;;;;16.80;16.13;;;16.90;50.80;;;;;;4941173;28;92032;-85
2021/05/09 06:06:33;;;;;;;33.95;32.67;;;16.90;50.30;;;;;;4927816;28;95698;-85
2021/05/09 06:09:01;;;;;;;23.27;22.30;;;17.00;50.60;;;;;;4927642;28;95675;-84
2021/05/09 06:11:27;;;;;;;30.27;29.05;;;17.00;50.10;;;;;;4946107;28;91882;-86
2021/05/09 06:13:52;;;;;;;22.63;21.75;;;17.10;50.40;;;;;;4945466;28;92019;-84
2021/05/09 06:16:18;;;;;;;29.52;28.33;;;17.20;50.00;;;;;;4940923;28;92033;-85
2021/05/09 06:18:44;;;;;;;30.85;29.60;;;17.20;50.50;;;;;;4944250;28;92470;-82
2021/05/09 06:21:09;;;;;;;21.42;20.48;;;17.30;50.60;;;;;;4947289;28;91935;-84
2021/05/09 06:23:35;;;;;;;16.08;15.40;;;17.30;50.40;;;;;;4947021;28;91832;-84
2021/05/09 06:26:01;;;;;;;15.88;15.27;;;17.40;49.70;;;;;;4948821;28;92604;-84
2021/05/09 06:28:26;;;;;;;15.15;14.55;;;17.40;49.30;;;;;;4949393;28;93014;-85
2021/05/09 06:30:52;;;;;;;18.42;17.65;;;17.50;50.00;;;;;;4949549;28;92054;-85
2021/05/09 06:33:18;;;;;;;19.15;18.38;;;17.50;49.80;;;;;;4949500;28;91731;-84
2021/05/09 06:35:44;;;;;;;18.33;17.63;;;17.50;49.80;;;;;;4947307;28;92072;-84
2021/05/09 06:38:10;;;;;;;22.00;21.10;;;17.50;49.50;;;;;;4949033;28;92415;-87
2021/05/09 06:40:37;;;;;;;16.65;16.02;;;17.50;49.30;;;;;;4950129;28;92129;-85
2021/05/09 06:43:06;;;;;;;24.70;23.80;;;17.60;49.90;;;;;;4950507;28;91272;-85
2021/05/09 06:45:33;;;;;;;26.42;25.42;;;17.60;49.50;;;;;;4950748;28;92158;-87
2021/05/09 06:48:02;;;;;;;23.55;22.45;;;17.70;50.70;;;;;;4940497;28;93688;-85
2021/05/09 06:50:29;;;;;;;34.55;33.13;;;17.80;50.30;;;;;;4946920;28;93565;-83
2021/05/09 06:52:56;;;;;;;23.67;22.63;;;17.90;49.50;;;;;;4950121;28;92051;-85
2021/05/09 06:55:22;;;;;;;45.72;43.97;;;18.00;49.70;;;;;;4945034;28;92924;-83
2021/05/09 06:57:48;;;;;;;31.65;30.45;;;18.10;48.40;;;;;;4947507;28;93026;-85
2021/05/09 07:00:16;;;;;;;31.08;29.77;;;18.20;50.90;;;;;;4947004;28;91962;-83
2021/05/09 07:02:42;;;;;;;21.30;20.45;;;18.20;50.60;;;;;;4944657;28;92030;-85
2021/05/09 07:05:08;;;;;;;20.73;19.98;;;18.30;49.30;;;;;;4944912;28;94143;-84
2021/05/09 07:07:55;;;;;;;20.80;19.77;;;18.30;48.50;;;;;;4945549;28;93339;-88
2021/05/09 07:10:23;;;;;;;23.02;22.15;;;18.50;48.50;;;;;;4942633;28;92024;-87
2021/05/09 07:12:49;;;;;;;23.35;22.40;;;18.60;47.30;;;;;;4928778;28;91963;-83
2021/05/09 07:15:22;;;;;;;32.28;31.02;;;18.60;47.40;;;;;;4944599;28;93259;-85
2021/05/09 07:18:02;;;;;;;25.75;24.67;;;18.70;47.80;;;;;;4944963;28;92297;-83
2021/05/09 07:20:30;;;;;;;24.20;23.17;;;18.80;47.20;;;;;;4947013;28;92147;-83
2021/05/09 07:22:57;;;;;;;8.60;8.30;;;19.10;48.80;;;;;;4946593;28;92111;-86
2021/05/09 07:25:23;;;;;;;16.42;15.82;;;18.80;49.30;;;;;;4948100;28;92075;-85
2021/05/09 07:27:49;;;;;;;23.50;22.63;;;19.00;48.60;;;;;;4946474;28;91905;-85
2021/05/09 07:30:15;;;;;;;18.92;18.10;;;19.10;47.60;;;;;;4946522;28;91969;-86
2021/05/09 07:32:40;;;;;;;18.10;17.40;;;19.20;46.60;;;;;;4929501;28;91346;-85
2021/05/09 07:35:07;;;;;;;13.75;13.25;;;;;;;;;;4946976;28;91964;-87
2021/05/09 07:37:32;;;;;;;18.10;17.42;;;19.30;45.10;;;;;;4945615;28;92000;-87
2021/05/09 07:39:58;;;;;;;12.88;12.32;;;19.50;48.30;;;;;;4947869;28;93105;-86
2021/05/09 07:42:24;;;;;;;18.67;17.98;;;19.30;46.60;;;;;;4948279;28;91940;-85
2021/05/09 07:44:54;;;;;;;38.60;37.05;;;19.40;47.70;;;;;;4945943;28;92453;-85
2021/05/09 07:47:19;;;;;;;38.55;37.05;;;19.40;49.30;;;;;;4949430;28;91768;-85
2021/05/09 07:49:46;;;;;;;23.23;22.33;;;;;;;;;;4945724;28;93420;-86
2021/05/09 07:52:11;;;;;;;30.52;29.30;;;19.80;53.50;;;;;;4942216;28;92239;-83
2021/05/09 07:54:38;;;;;;;52.22;50.13;;;19.90;52.60;;;;;;4942076;28;93109;-87
2021/05/09 07:57:04;;;;;;;40.25;38.55;;;20.10;51.80;;;;;;4940962;28;92067;-83
2021/05/09 07:59:32;;;;;;;35.80;34.33;;;20.20;53.70;;;;;;4947536;28;91739;-85
2021/05/09 08:01:58;;;;;;;46.13;44.20;;;20.30;54.20;;;;;;4940022;28;92108;-85
2021/05/09 08:04:24;;;;;;;30.88;29.48;;;;;;;;;;4946479;28;93408;-87
2021/05/09 08:06:50;;;;;;;114.80;110.40;;;20.60;53.20;;;;;;4945827;28;91657;-84
2021/05/09 08:09:16;;;;;;;50.45;48.15;;;;;;;;;;4944314;28;91957;-86
2021/05/09 08:11:42;;;;;;;25.23;24.17;;;;;;;;;;4942615;28;92115;-86
2021/05/09 08:14:08;;;;;;;18.17;17.42;;;;;;;;;;4942238;28;92693;-88
2021/05/09 08:16:34;;;;;;;42.75;40.83;;;;;;;;;;4942960;28;92463;-85
2021/05/09 08:19:00;;;;;;;80.28;77.13;;;;;;;;;;4944754;28;91993;-86
2021/05/09 08:21:28;;;;;;;168.38;161.90;;;26.80;46.30;;;;;;4944591;28;91279;-87
2021/05/09 08:23:54;;;;;;;469.13;449.33;;;26.70;46.70;;;;;;4944599;28;92084;-87
2021/05/09 08:26:21;;;;;;;242.32;233.13;;;29.50;41.80;;;;;;4944253;28;92144;-87
2021/05/09 08:28:46;;;;;;;212.35;204.18;;;29.60;42.20;;;;;;4924789;28;92951;-85
2021/05/09 08:31:16;;;;;;;117.75;113.05;;;31.30;40.30;;;;;;4919026;28;92160;-86
2021/05/09 08:33:42;;;;;;;133.90;128.40;;;32.40;38.30;;;;;;4922005;28;94423;-87
2021/05/09 08:36:08;;;;;;;78.20;75.10;;;32.80;37.20;;;;;;4944645;28;92055;-87
2021/05/09 08:38:34;;;;;;;48.95;46.53;;;33.70;35.10;;;;;;4944627;28;91733;-85
2021/05/09 08:40:59;;;;;;;53.63;51.42;;;35.30;34.50;;;;;;4943866;28;93318;-85
2021/05/09 08:43:30;;;;;;;30.55;29.15;;;35.30;34.90;;;;;;4942409;28;92520;-87
2021/05/09 08:45:58;;;;;;;42.83;40.95;;;36.90;33.20;;;;;;4942107;28;91242;-86
2021/05/09 08:48:26;;;;;;;79.00;75.95;;;37.30;33.00;;;;;;4941638;28;93152;-86
2021/05/09 08:50:52;;;;;;;71.72;68.97;;;37.30;26.80;;;;;;4942269;28;92029;-88
2021/05/09 08:53:20;;;;;;;112.63;108.07;;;38.00;29.00;;;;;;4943384;28;93369;-86
2021/05/09 08:55:46;;;;;;;94.80;91.07;;;38.10;29.40;;;;;;4942423;28;93253;-87
2021/05/09 08:58:12;;;;;;;85.53;82.22;;;39.00;30.10;;;;;;4944975;28;92860;-86
2021/05/09 09:00:38;;;;;;;52.22;50.17;;;40.00;30.50;;;;;;4914944;28;92072;-85
2021/05/09 09:03:05;;;;;;;127.30;122.20;;;41.10;29.90;;;;;;4940174;28;92782;-84
2021/05/09 09:05:41;;;;;;;138.02;132.40;;;42.00;28.80;;;;;;4942179;28;92165;-86
2021/05/09 09:08:08;;;;;;;144.10;138.25;;;42.80;27.90;;;;;;4940520;28;92066;-87
2021/05/09 09:10:34;;;;;;;81.40;78.10;;;43.70;28.10;;;;;;4935129;28;91201;-84
2021/05/09 09:13:02;;;;;;;79.55;76.40;;;44.20;27.70;;;;;;4932790;28;91941;-87
2021/05/09 09:15:48;;;;;;;98.57;94.73;;;45.00;27.20;;;;;;4942829;28;96526;-86
2021/05/09 09:18:37;;;;;;;146.52;140.73;;;45.20;27.10;;;;;;4939643;28;92975;-88
2021/05/09 09:21:21;;;;;;;128.23;123.07;;;45.90;27.00;;;;;;4938805;28;92195;-86
2021/05/09 09:23:48;;;;;;;124.13;119.22;;;46.40;26.80;;;;;;4930318;28;93746;-86
2021/05/09 09:26:28;;;;;;;140.68;135.15;;;46.80;26.60;;;;;;4940112;28;91839;-85
2021/05/09 09:28:53;;;;;;;91.05;87.43;;;47.20;25.40;;;;;;4940970;28;92364;-86
2021/05/09 09:31:40;;;;;;;40.40;38.60;;;47.30;26.00;;;;;;4940345;28;91677;-86
2021/05/09 09:34:06;;;;;;;49.28;47.17;;;48.10;25.90;;;;;;4941228;28;92810;-84
2021/05/09 09:36:37;;;;;;;52.60;50.45;;;48.00;25.70;;;;;;4940146;28;93418;-84
2021/05/09 09:39:04;;;;;;;64.45;61.78;;;47.60;25.80;;;;;;4939227;28;92389;-86
2021/05/09 09:41:31;;;;;;;77.93;74.90;;;46.50;26.40;;;;;;4941795;28;91996;-86
2021/05/09 09:44:15;;;;;;;82.00;78.70;;;45.50;26.50;;;;;;4942306;28;93100;-86
2021/05/09 09:46:52;;;;;;;96.15;92.28;;;45.30;26.20;;;;;;4922914;28;96049;-84
2021/05/09 09:49:19;;;;;;;121.80;117.05;;;45.00;25.80;;;;;;4938202;28;92580;-84
2021/05/09 09:51:57;;;;;;;62.15;59.72;;;44.10;23.80;;;;;;4941656;28;91923;-84
2021/05/09 09:54:43;;;;;;;125.30;120.45;;;44.40;24.90;;;;;;4942730;28;93246;-85
2021/05/09 09:57:10;;;;;;;175.60;168.85;;;44.60;23.60;;;;;;4938269;28;91926;-87
2021/05/09 09:59:41;;;;;;;100.60;96.70;;;44.70;24.50;;;;;;4942639;28;92096;-86
2021/05/09 10:02:07;;;;;;;153.98;147.93;;;45.00;23.60;;;;;;4943515;28;91493;-87
2021/05/09 10:04:34;;;;;;;122.00;117.28;;;44.70;23.20;;;;;;4938753;28;95594;-87
2021/05/09 10:07:05;;;;;;;111.57;107.13;;;44.70;23.90;;;;;;4924073;28;94540;-87
2021/05/09 10:09:31;;;;;;;128.05;123.05;;;45.00;23.20;;;;;;4941659;28;92866;-87
2021/05/09 10:11:57;;;;;;;125.75;120.72;;;45.60;23.70;;;;;;4943124;28;91983;-87
2021/05/09 10:14:23;;;;;;;96.15;92.25;;;47.00;23.00;;;;;;4944355;28;93696;-86
2021/05/09 10:16:50;;;;;;;95.38;91.68;;;46.20;23.10;;;;;;4942593;28;91897;-86
2021/05/09 10:19:22;;;;;;;60.15;57.80;;;46.10;23.00;;;;;;4944725;28;91660;-86
2021/05/09 10:21:48;;;;;;;51.25;49.22;;;46.50;22.50;;;;;;4948817;28;92026;-86
2021/05/09 10:24:15;;;;;;;68.50;65.78;;;46.40;23.50;;;;;;4943885;28;93161;-86
2021/05/09 10:26:59;;;;;;;118.32;113.80;;;45.40;23.00;;;;;;4943805;28;91255;-88
2021/05/09 10:29:41;;;;;;;117.07;112.57;;;45.30;22.50;;;;;;4937834;28;91994;-86
2021/05/09 10:32:19;;;;;;;69.60;66.90;;;45.70;22.50;;;;;;4940039;28;92089;-86
2021/05/09 10:35:04;;;;;;;75.97;73.05;;;45.50;22.40;;;;;;4942168;28;93019;-87
2021/05/09 10:37:39;;;;;;;88.32;84.93;;;46.10;21.90;;;;;;4925517;28;96159;-87
2021/05/09 10:40:27;;;;;;;87.55;84.03;;;46.80;21.60;;;;;;4938449;28;93009;-85
2021/05/09 10:43:02;;;;;;;116.43;112.03;;;45.60;22.00;;;;;;4943076;28;91768;-86
2021/05/09 10:45:34;;;;;;;69.57;66.85;;;44.80;22.30;;;;;;4943555;28;93168;-85
2021/05/09 10:48:21;;;;;;;79.18;76.03;;;46.20;22.20;;;;;;4949534;28;92059;-86
2021/05/09 10:51:03;;;;;;;66.55;63.85;;;46.10;21.10;;;;;;4941918;28;91758;-87
2021/05/09 10:53:38;;;;;;;81.13;78.07;;;46.90;21.40;;;;;;4944627;28;90867;-86
2021/05/09 10:56:10;;;;;;;82.13;79.00;;;47.60;21.60;;;;;;4925697;28;92533;-86
2021/05/09 10:58:48;;;;;;;111.07;106.78;;;48.10;21.90;;;;;;4942337;28;92165;-86
2021/05/09 11:01:19;;;;;;;126.63;121.70;;;49.90;20.20;;;;;;4938309;28;92973;-89
2021/05/09 11:03:51;;;;;;;100.18;96.35;;;49.80;20.70;;;;;;4937729;28;92541;-88
2021/05/09 11:06:19;;;;;;;112.43;108.13;;;48.60;21.80;;;;;;4940712;28;92580;-88
2021/05/09 11:08:45;;;;;;;141.02;135.65;;;48.30;21.00;;;;;;4945231;28;92567;-86
2021/05/09 11:11:45;;;;;;;99.78;95.90;;;47.80;20.40;;;;;;4943763;28;92049;-85
2021/05/09 11:14:11;;;;;;;122.10;117.43;;;48.20;21.50;;;;;;4944060;28;92075;-86
2021/05/09 11:16:44;;;;;;;102.72;98.57;;;48.70;20.90;;;;;;4942793;28;92256;-86
2021/05/09 11:19:11;;;;;;;121.10;116.40;;;48.60;20.30;;;;;;4921211;28;94966;-86
2021/05/09 11:21:42;;;;;;;109.32;105.13;;;47.80;20.50;;;;;;4944263;28;92088;-87
2021/05/09 11:24:10;;;;;;;105.75;101.65;;;47.70;20.30;;;;;;4944406;28;91787;-85
2021/05/09 11:26:41;;;;;;;80.57;77.50;;;48.10;20.80;;;;;;4942115;28;94183;-86
2021/05/09 11:29:11;;;;;;;134.40;129.15;;;47.90;20.50;;;;;;4944242;28;93694;-85
2021/05/09 11:31:44;;;;;;;155.90;149.93;;;48.10;20.40;;;;;;4944133;28;91925;-85
2021/05/09 11:34:10;;;;;;;128.80;123.82;;;46.10;20.50;;;;;;4943883;28;92356;-87
2021/05/09 11:36:38;;;;;;;147.05;141.43;;;46.90;20.90;;;;;;4942118;28;92226;-87
2021/05/09 11:39:06;;;;;;;138.77;133.37;;;46.50;20.40;;;;;;4944066;28;92992;-87
2021/05/09 11:41:50;;;;;;;116.03;111.60;;;46.00;20.60;;;;;;4939606;28;92028;-85
2021/05/09 11:44:15;;;;;;;108.45;104.15;;;45.30;20.50;;;;;;4939539;28;91906;-86
2021/05/09 11:46:44;;;;;;;130.40;125.32;;;44.00;21.10;;;;;;4940759;28;92240;-85
2021/05/09 11:49:34;;;;;;;109.57;105.25;;;45.50;20.40;;;;;;4942862;28;93008;-85
2021/05/09 11:52:10;;;;;;;110.07;105.72;;;47.10;20.70;;;;;;4941369;28;93169;-85
2021/05/09 11:54:49;;;;;;;163.00;156.70;;;47.70;20.30;;;;;;4942575;28;91944;-85
2021/05/09 11:57:17;;;;;;;140.07;134.48;;;48.40;21.50;;;;;;4940976;28;94969;-85
2021/05/09 12:00:10;;;;;;;114.30;109.95;;;48.50;20.50;;;;;;4941403;28;92162;-85
2021/05/09 12:02:37;;;;;;;160.95;154.73;;;48.20;20.10;;;;;;4927461;28;92243;-86
2021/05/09 12:05:05;;;;;;;173.18;166.48;;;48.30;21.10;;;;;;4949015;28;92134;-87
2021/05/09 12:07:34;;;;;;;138.88;133.60;;;48.40;21.00;;;;;;4942779;28;92717;-86
2021/05/09 12:10:01;;;;;;;87.38;84.00;;;48.30;20.70;;;;;;4942514;28;93453;-85
2021/05/09 12:12:30;;;;;;;76.32;73.43;;;47.10;20.70;;;;;;4944883;28;91886;-85
2021/05/09 12:15:05;;;;;;;96.05;92.43;;;46.50;20.60;;;;;;4943832;28;93188;-85
2021/05/09 12:17:31;;;;;;;77.78;74.85;;;45.40;20.50;;;;;;4944420;28;92928;-87
2021/05/09 12:19:57;;;;;;;131.45;126.35;;;45.50;21.00;;;;;;4943385;28;93084;-86
2021/05/09 12:22:23;;;;;;;107.43;103.22;;;46.10;21.10;;;;;;4940261;28;92134;-87
2021/05/09 12:24:56;;;;;;;88.03;84.68;;;46.50;20.50;;;;;;4939220;28;92385;-86
2021/05/09 12:27:25;;;;;;;119.07;114.53;;;45.10;20.80;;;;;;4941417;28;92095;-86
2021/05/09 12:29:52;;;;;;;;;;;43.40;21.40;;;;;;4941358;28;92649;-87
2021/05/09 12:32:29;;;;;;;56.20;54.00;;;42.00;22.40;;;;;;4936782;28;91897;-87
2021/05/09 12:35:03;;;;;;;102.75;98.80;;;41.20;22.20;;;;;;4934894;28;91207;-87
2021/05/09 12:37:31;;;;;;;91.22;87.63;;;40.60;22.40;;;;;;4943194;28;92179;-85
2021/05/09 12:40:32;;;;;;;79.82;76.70;;;40.70;22.30;;;;;;4943138;28;92028;-85
2021/05/09 12:42:59;;;;;;;117.57;113.03;;;40.60;22.30;;;;;;4941181;28;92845;-85
2021/05/09 12:45:30;;;;;;;110.78;106.38;;;40.60;23.40;;;;;;4943383;28;92137;-85
2021/05/09 12:48:14;;;;;;;84.95;81.68;;;40.20;23.60;;;;;;4936047;28;93172;-85
2021/05/09 12:50:56;;;;;;;86.38;83.03;;;39.70;21.20;;;;;;4939372;28;93051;-87
2021/05/09 12:53:37;;;;;;;132.02;126.72;;;38.90;21.30;;;;;;4944482;28;92032;-85
2021/05/09 12:56:21;;;;;;;142.18;136.65;;;37.80;21.90;;;;;;4941832;28;92212;-85
2021/05/09 12:59:08;;;;;;;113.25;108.82;;;37.40;21.90;;;;;;4936083;28;92298;-85
2021/05/09 13:01:55;;;;;;;115.20;110.75;;;37.10;22.80;;;;;;4940117;28;91491;-86
2021/05/09 13:04:27;;;;;;;94.38;90.60;;;36.70;22.80;;;;;;4927782;28;92088;-86
2021/05/09 13:06:53;;;;;;;114.60;110.15;;;36.50;22.00;;;;;;4941755;28;91917;-85
2021/05/09 13:09:19;;;;;;;120.40;115.63;;;36.80;22.60;;;;;;4941011;28;93177;-86
2021/05/09 13:11:44;;;;;;;95.80;92.15;;;37.20;22.90;;;;;;4942024;28;93078;-86
2021/05/09 13:14:11;;;;;;;170.27;163.60;;;36.60;22.00;;;;;;4943405;28;92019;-86
2021/05/09 13:16:37;;;;;;;136.90;131.48;;;37.20;23.10;;;;;;4946569;28;92581;-86
2021/05/09 13:19:03;;;;;;;114.22;109.75;;;37.40;22.40;;;;;;4949380;28;92282;-86
2021/05/09 13:21:28;;;;;;;113.38;108.97;;;37.00;22.80;;;;;;4944872;28;92059;-85
2021/05/09 13:23:54;;;;;;;135.40;130.07;;;37.60;22.20;;;;;;4946274;28;91975;-86
2021/05/09 13:26:20;;;;;;;109.70;105.43;;;38.30;22.30;;;;;;4945500;28;91037;-85
2021/05/09 13:28:45;;;;;;;105.80;101.72;;;38.90;22.40;;;;;;4944553;28;92348;-85
2021/05/09 13:31:11;;;;;;;105.72;101.47;;;38.60;23.10;;;;;;4944334;28;92315;-86
2021/05/09 13:33:37;;;;;;;83.38;80.18;;;38.80;22.20;;;;;;4944126;28;92981;-85
2021/05/09 13:36:03;;;;;;;110.03;105.68;;;38.10;22.40;;;;;;4946659;28;92159;-85
2021/05/09 13:38:28;;;;;;;86.75;83.32;;;38.10;22.40;;;;;;4945646;28;92190;-86
2021/05/09 13:40:54;;;;;;;77.05;73.97;;;38.40;22.10;;;;;;4946057;28;93079;-86
2021/05/09 13:43:20;;;;;;;131.55;126.13;;;37.50;22.50;;;;;;4947184;28;91588;-85
2021/05/09 13:45:45;;;;;;;139.18;133.77;;;35.90;23.80;;;;;;4946045;28;92143;-84
2021/05/09 13:48:11;;;;;;;128.70;123.65;;;35.40;22.90;;;;;;4942543;28;94940;-85
2021/05/09 13:50:37;;;;;;;159.85;153.45;;;34.80;23.40;;;;;;4944533;28;93004;-86
2021/05/09 13:53:03;;;;;;;217.98;209.32;;;34.80;23.90;;;;;;4944940;28;92148;-86
2021/05/09 13:55:29;;;;;;;244.55;234.75;;;33.80;24.10;;;;;;4943879;28;92215;-84
2021/05/09 13:57:55;;;;;;;166.98;160.32;;;33.20;24.50;;;;;;4939607;28;93318;-84
2021/05/09 14:00:21;;;;;;;111.55;107.15;;;32.80;24.20;;;;;;4942507;28;92287;-85
2021/05/09 14:02:47;;;;;;;89.97;86.25;;;32.80;24.50;;;;;;4940356;28;92079;-86
2021/05/09 14:05:14;;;;;;;113.70;109.10;;;33.10;24.80;;;;;;4942461;28;92994;-86
2021/05/09 14:07:40;;;;;;;131.40;126.32;;;32.50;24.90;;;;;;4937097;28;92758;-86
2021/05/09 14:10:06;;;;;;;115.68;111.20;;;32.10;25.50;;;;;;4938600;28;92187;-86
2021/05/09 14:12:33;;;;;;;135.38;130.00;;;31.60;25.60;;;;;;4940517;28;92062;-85
2021/05/09 14:15:03;;;;;;;109.57;105.38;;;31.30;25.60;;;;;;4943036;28;91440;-85
2021/05/09 14:17:33;;;;;;;145.00;139.40;;;31.00;26.30;;;;;;4942225;28;92377;-85
2021/05/09 14:19:59;;;;;;;187.93;180.50;;;30.90;26.40;;;;;;4944879;28;92498;-85
2021/05/09 14:22:25;;;;;;;195.73;188.20;;;31.10;26.20;;;;;;4945264;28;92865;-84
2021/05/09 14:24:52;;;;;;;160.07;153.73;;;30.80;26.20;;;;;;4946399;28;91907;-85
2021/05/09 14:27:18;;;;;;;149.23;143.40;;;31.00;26.20;;;;;;4942294;28;92596;-84
2021/05/09 14:29:44;;;;;;;153.98;147.88;;;31.20;26.40;;;;;;4940421;28;92220;-87
2021/05/09 14:32:10;;;;;;;161.88;155.43;;;31.20;26.30;;;;;;4942706;28;92193;-86
2021/05/09 14:34:36;;;;;;;147.93;142.13;;;31.20;27.00;;;;;;4943128;28;92048;-86
2021/05/09 14:37:02;;;;;;;149.82;144.00;;;31.00;26.90;;;;;;4942641;28;93110;-87
2021/05/09 14:39:28;;;;;;;177.68;170.85;;;30.90;27.00;;;;;;4943702;28;91986;-86
2021/05/09 14:41:56;;;;;;;169.68;162.88;;;30.70;26.60;;;;;;4941433;28;91900;-86
2021/05/09 14:44:22;;;;;;;125.25;120.25;;;30.10;27.60;;;;;;4943015;28;91969;-87
2021/05/09 14:46:48;;;;;;;164.40;158.02;;;30.00;27.80;;;;;;4942279;28;93253;-86
2021/05/09 14:49:14;;;;;;;137.10;131.77;;;30.00;28.00;;;;;;4940525;28;92973;-87
2021/05/09 14:51:39;;;;;;;168.57;161.93;;;29.80;27.80;;;;;;4942317;28;91871;-86
2021/05/09 14:54:05;;;;;;;163.68;157.35;;;29.70;27.50;;;;;;4925113;28;92278;-86
2021/05/09 14:56:35;;;;;;;149.55;143.40;;;29.60;27.40;;;;;;4934463;28;92677;-86
2021/05/09 14:59:01;;;;;;;223.97;215.47;;;29.30;28.20;;;;;;4942746;28;92518;-86
2021/05/09 15:01:27;;;;;;;178.85;172.05;;;29.50;28.50;;;;;;4939742;28;91984;-86
2021/05/09 15:03:54;;;;;;;223.23;214.75;;;29.60;28.10;;;;;;4943212;28;91291;-86
2021/05/09 15:06:21;;;;;;;241.02;231.85;;;29.50;28.60;;;;;;4943601;28;92351;-88
2021/05/09 15:08:47;;;;;;;227.98;219.35;;;29.30;28.50;;;;;;4935680;28;92113;-85
2021/05/09 15:11:12;;;;;;;143.02;137.13;;;29.00;28.30;;;;;;4942881;28;92793;-85
2021/05/09 15:13:38;;;;;;;124.82;119.38;;;29.00;28.90;;;;;;4943568;28;91995;-86
2021/05/09 15:16:04;;;;;;;139.63;134.23;;;28.60;28.80;;;;;;4943182;28;91782;-86
2021/05/09 15:18:31;;;;;;;151.88;145.77;;;28.60;29.00;;;;;;4942847;28;92102;-85
2021/05/09 15:20:57;;;;;;;128.68;123.78;;;28.40;29.00;;;;;;4942688;28;91814;-85
2021/05/09 15:23:25;;;;;;;120.72;115.95;;;28.40;29.40;;;;;;4943443;28;91704;-86
2021/05/09 15:25:53;;;;;;;119.80;115.20;;;28.20;29.70;;;;;;4940154;28;92611;-87
2021/05/09 15:28:19;;;;;;;131.98;126.80;;;28.20;29.40;;;;;;4944795;28;93168;-88
2021/05/09 15:30:45;;;;;;;142.40;136.75;;;28.20;29.70;;;;;;4942179;28;93547;-86
2021/05/09 15:33:10;;;;;;;106.03;101.93;;;28.20;28.90;;;;;;4942667;28;92111;-87
2021/05/09 15:35:36;;;;;;;87.38;83.82;;;28.00;29.60;;;;;;4941496;28;92884;-86
2021/05/09 15:38:02;;;;;;;72.38;69.57;;;27.80;29.60;;;;;;4941868;28;92847;-87
2021/05/09 15:40:28;;;;;;;72.25;69.32;;;27.90;29.50;;;;;;4941089;28;91898;-85
2021/05/09 15:42:53;;;;;;;59.58;57.22;;;27.80;30.00;;;;;;4943668;28;91838;-85
2021/05/09 15:45:19;;;;;;;80.50;77.18;;;27.80;30.20;;;;;;4943047;28;92717;-84
2021/05/09 15:47:45;;;;;;;66.03;63.25;;;27.90;30.10;;;;;;4944188;28;91987;-84
2021/05/09 15:50:11;;;;;;;99.50;95.50;;;27.70;29.70;;;;;;4941207;28;92296;-87
2021/05/09 15:52:37;;;;;;;67.40;64.60;;;27.60;30.00;;;;;;4939402;28;92756;-84
2021/05/09 15:55:04;;;;;;;107.10;102.35;;;27.50;29.70;;;;;;4943332;28;92901;-82
2021/05/09 15:57:30;;;;;;;202.13;194.48;;;27.30;30.10;;;;;;4942539;28;91838;-83
2021/05/09 15:59:56;;;;;;;212.32;204.30;;;27.30;30.30;;;;;;4942270;28;93459;-84
2021/05/09 16:02:21;;;;;;;197.30;189.90;;;27.20;30.20;;;;;;4941477;28;92149;-83
2021/05/09 16:04:47;;;;;;;226.98;218.52;;;27.00;30.50;;;;;;4942406;28;92502;-86
2021/05/09 16:07:13;;;;;;;226.23;217.68;;;26.90;31.00;;;;;;4940276;28;92446;-85
2021/05/09 16:09:39;;;;;;;230.93;222.20;;;27.00;30.60;;;;;;4941857;28;92067;-84
2021/05/09 16:12:06;;;;;;;150.50;144.77;;;26.80;30.90;;;;;;4942215;28;92106;-83
2021/05/09 16:14:32;;;;;;;79.75;76.65;;;26.80;31.80;;;;;;4944677;28;92100;-85
2021/05/09 16:17:01;;;;;;;121.57;116.93;;;26.70;31.70;;;;;;4945169;28;93192;-83
2021/05/09 16:19:26;;;;;;;104.22;100.28;;;26.60;30.80;;;;;;4938233;28;93139;-84
2021/05/09 16:21:52;;;;;;;245.27;236.00;;;26.30;31.30;;;;;;4944066;28;92166;-89
2021/05/09 16:24:22;;;;;;;320.27;307.73;;;26.10;32.00;;;;;;4938566;28;94377;-87
2021/05/09 16:26:50;;;;;;;315.30;302.58;;;26.00;32.30;;;;;;4944741;28;93992;-88
2021/05/09 16:29:16;;;;;;;319.45;307.42;;;26.00;32.00;;;;;;4942115;28;91988;-86
2021/05/09 16:31:42;;;;;;;290.33;279.05;;;25.80;32.20;;;;;;4945211;28;91888;-87